Terminal Aerodrome Forecast
Issued by NWS

Home | Current Version | Previous Version | Text Only | Print | Product List | Glossary On
Versions: 1 2 3 4 5 6 7 8 9 10 11 12 13 14 15 16 17
000
FTUS45 KABQ 282344 RRA
TAFAEG
TAF
KAEG 282344Z 2900/2924 VRB04KT 6SM -RA BR SCT009 OVC015
     FM290600 33008KT 2SM BR VCSH BKN035 BKN080
     FM291200 36008KT 3SM -SN BR BKN009 OVC015
     FM292000 35008KT P6SM VCSH BKN030 OVC080=

USA.gov is the U.S. government's official web portal to all federal, state and local government web resources and services.